createdAt,value
2022-10-01T00:00:34.608Z,19.50
2022-10-01T00:01:34.841Z,20.70
2022-10-01T00:02:34.661Z,18.90
2022-10-01T00:03:34.559Z,19.20
2022-10-01T00:04:34.551Z,18.60
2022-10-01T00:05:34.541Z,17.70
2022-10-01T00:06:34.530Z,15.40
2022-10-01T00:07:34.530Z,15.40
2022-10-01T00:08:34.493Z,14.40
2022-10-01T00:09:34.479Z,15.40
2022-10-01T00:10:34.462Z,12.80
2022-10-01T00:11:34.795Z,10.20
2022-10-01T00:12:34.425Z,9.60
2022-10-01T00:13:34.413Z,9.90
2022-10-01T00:14:34.404Z,11.80
2022-10-01T00:15:34.386Z,11.20
2022-10-01T00:16:34.416Z,9.20
2022-10-01T00:17:34.351Z,11.80
2022-10-01T00:18:34.364Z,10.60
2022-10-01T00:19:34.313Z,8.10
2022-10-01T00:20:34.302Z,10.40
2022-10-01T00:21:34.624Z,10.80
2022-10-01T00:22:34.256Z,9.10
2022-10-01T00:23:34.246Z,8.50
2022-10-01T00:24:34.233Z,10.20
2022-10-01T00:25:34.213Z,9.00
2022-10-01T00:26:34.196Z,11.00
2022-10-01T00:27:34.176Z,8.00
2022-10-01T00:28:34.196Z,8.00
2022-10-01T00:29:34.166Z,9.10
2022-10-01T00:30:38.366Z,9.00
2022-10-01T00:31:35.460Z,7.90
2022-10-01T00:32:34.136Z,10.80
2022-10-01T00:33:34.127Z,11.50
2022-10-01T00:34:34.137Z,9.30
2022-10-01T00:35:34.107Z,8.50
2022-10-01T00:36:34.106Z,8.80
2022-10-01T00:37:34.077Z,9.80
2022-10-01T00:38:34.077Z,11.20
2022-10-01T00:39:34.077Z,7.00
2022-10-01T00:40:34.055Z,9.20
2022-10-01T00:41:34.263Z,9.90
2022-10-01T00:42:34.027Z,9.60
2022-10-01T00:43:34.008Z,8.80
2022-10-01T00:44:34.016Z,10.30
2022-10-01T00:45:34.020Z,10.00
2022-10-01T00:46:33.978Z,11.10
2022-10-01T00:47:33.965Z,8.10
2022-10-01T00:48:33.947Z,11.60
2022-10-01T00:49:33.927Z,13.30
2022-10-01T00:50:33.919Z,11.50
2022-10-01T00:51:34.197Z,9.80
2022-10-01T00:52:33.880Z,13.50
2022-10-01T00:53:33.871Z,12.70
2022-10-01T00:54:33.858Z,13.10
2022-10-01T00:55:33.850Z,16.40
2022-10-01T00:56:33.830Z,16.20
2022-10-01T00:57:33.810Z,14.20
2022-10-01T00:58:33.819Z,18.40
2022-10-01T00:59:33.791Z,19.90
2022-10-01T01:00:33.811Z,17.30
2022-10-01T01:01:34.038Z,16.50
2022-10-01T01:02:33.787Z,19.50
2022-10-01T01:03:33.759Z,18.20
2022-10-01T01:04:33.752Z,14.40
2022-10-01T01:05:33.752Z,18.30
2022-10-01T01:06:33.732Z,20.80
2022-10-01T01:07:33.722Z,16.20
2022-10-01T01:08:33.702Z,15.60
2022-10-01T01:09:33.689Z,21.80
2022-10-01T01:10:33.692Z,20.70
2022-10-01T01:11:33.988Z,15.60
2022-10-01T01:12:33.651Z,15.90
2022-10-01T01:13:33.633Z,14.80
2022-10-01T01:14:33.632Z,13.90
2022-10-01T01:15:33.640Z,15.30
2022-10-01T01:16:33.603Z,14.70
2022-10-01T01:17:33.592Z,19.70
2022-10-01T01:18:33.597Z,16.20
2022-10-01T01:19:33.576Z,15.80
2022-10-01T01:20:33.577Z,20.90
2022-10-01T01:21:33.724Z,16.70
2022-10-01T01:22:33.527Z,18.40
2022-10-01T01:23:33.497Z,19.60
2022-10-01T01:24:33.496Z,17.80
2022-10-01T01:25:33.475Z,15.50
2022-10-01T01:26:33.477Z,12.70
2022-10-01T01:27:33.439Z,14.30
2022-10-01T01:28:33.429Z,15.40
2022-10-01T01:29:33.418Z,14.10
2022-10-01T01:30:33.397Z,17.00
2022-10-01T01:31:33.639Z,12.70
2022-10-01T01:32:33.381Z,12.80
2022-10-01T01:33:33.340Z,13.00
2022-10-01T01:34:33.330Z,17.50
2022-10-01T01:35:33.317Z,10.40
2022-10-01T01:36:33.320Z,12.10
2022-10-01T01:37:33.288Z,12.10
2022-10-01T01:38:33.289Z,17.10
2022-10-01T01:39:33.281Z,12.30
2022-10-01T01:40:33.260Z,13.80
2022-10-01T01:41:33.424Z,13.30
2022-10-01T01:42:33.261Z,14.20
2022-10-01T01:43:33.244Z,14.40
2022-10-01T01:44:33.208Z,14.00
2022-10-01T01:45:33.221Z,16.50
2022-10-01T01:46:33.199Z,15.30
2022-10-01T01:47:33.180Z,15.00
2022-10-01T01:48:33.163Z,12.90
2022-10-01T01:49:33.151Z,13.30
2022-10-01T01:50:33.152Z,14.70
2022-10-01T01:51:33.471Z,13.80
2022-10-01T01:52:33.132Z,13.00
2022-10-01T01:53:33.102Z,15.50
2022-10-01T01:54:33.117Z,15.50
2022-10-01T01:55:33.094Z,15.30
2022-10-01T01:56:33.093Z,14.60
2022-10-01T01:57:33.063Z,17.10
2022-10-01T01:58:33.073Z,14.80
2022-10-01T01:59:33.051Z,15.40
2022-10-01T02:00:33.054Z,14.80
2022-10-01T02:01:33.375Z,14.50
2022-10-01T02:02:33.110Z,15.00
2022-10-01T02:03:33.025Z,14.10
2022-10-01T02:04:33.002Z,11.80
2022-10-01T02:05:33.004Z,18.20
2022-10-01T02:06:32.987Z,17.80
2022-10-01T02:07:32.974Z,20.00
2022-10-01T02:08:32.965Z,16.20
2022-10-01T02:09:32.954Z,15.30
2022-10-01T02:10:32.926Z,14.60
2022-10-01T02:11:33.159Z,12.20
2022-10-01T02:12:32.916Z,12.00
2022-10-01T02:13:32.906Z,16.00
2022-10-01T02:14:32.885Z,13.10
2022-10-01T02:15:32.938Z,18.10
2022-10-01T02:16:32.857Z,10.90
2022-10-01T02:17:32.846Z,15.00
2022-10-01T02:18:32.846Z,15.20
2022-10-01T02:19:32.827Z,14.30
2022-10-01T02:20:32.816Z,14.30
2022-10-01T02:21:33.064Z,13.80
2022-10-01T02:22:32.802Z,13.90
2022-10-01T02:23:32.808Z,12.40
2022-10-01T02:24:32.779Z,17.80
2022-10-01T02:25:32.787Z,13.70
2022-10-01T02:26:32.788Z,18.40
2022-10-01T02:27:32.779Z,14.30
2022-10-01T02:28:32.777Z,17.60
2022-10-01T02:29:32.779Z,13.50
2022-10-01T02:30:32.760Z,14.50
2022-10-01T02:31:33.191Z,15.80
2022-10-01T02:32:32.750Z,13.40
2022-10-01T02:33:32.759Z,12.20
2022-10-01T02:34:32.745Z,14.60
2022-10-01T02:35:32.741Z,14.20
2022-10-01T02:36:32.728Z,12.40
2022-10-01T02:37:32.728Z,13.40
2022-10-01T02:38:32.711Z,17.40
2022-10-01T02:39:32.719Z,17.80
2022-10-01T02:40:32.712Z,15.90
2022-10-01T02:41:33.025Z,17.30
2022-10-01T02:42:32.679Z,15.20
2022-10-01T02:43:32.679Z,15.20
2022-10-01T02:44:32.677Z,15.40
2022-10-01T02:45:32.743Z,15.10
2022-10-01T02:46:32.669Z,15.40
2022-10-01T02:47:32.658Z,10.80
2022-10-01T02:48:32.631Z,13.30
2022-10-01T02:49:32.651Z,14.30
2022-10-01T02:50:32.621Z,14.00
2022-10-01T02:51:32.890Z,14.00
2022-10-01T02:52:32.592Z,15.10
2022-10-01T02:53:32.592Z,13.40
2022-10-01T02:54:32.601Z,15.00
2022-10-01T02:55:32.583Z,16.70
2022-10-01T02:56:32.570Z,14.80
2022-10-01T02:57:32.581Z,13.70
2022-10-01T02:58:32.573Z,12.30
2022-10-01T02:59:32.563Z,11.70
2022-10-01T03:00:32.561Z,12.40
2022-10-01T03:01:32.807Z,14.10
2022-10-01T03:02:32.608Z,11.70
2022-10-01T03:03:32.524Z,14.80
2022-10-01T03:04:32.535Z,13.50
2022-10-01T03:05:32.513Z,13.90
2022-10-01T03:06:32.490Z,12.30
2022-10-01T03:07:32.482Z,15.50
2022-10-01T03:08:32.468Z,19.00
2022-10-01T03:09:32.474Z,18.10
2022-10-01T03:10:32.454Z,15.90
2022-10-01T03:11:32.774Z,16.30
2022-10-01T03:12:32.445Z,13.30
2022-10-01T03:13:32.433Z,15.40
2022-10-01T03:14:32.469Z,15.50
2022-10-01T03:15:32.416Z,15.10
2022-10-01T03:16:32.398Z,13.50
2022-10-01T03:17:32.386Z,14.00
2022-10-01T03:18:32.366Z,15.80
2022-10-01T03:19:32.354Z,15.60
2022-10-01T03:20:32.358Z,12.60
2022-10-01T03:21:32.631Z,17.10
2022-10-01T03:22:32.326Z,13.90
2022-10-01T03:23:32.317Z,13.80
2022-10-01T03:24:32.299Z,15.00
2022-10-01T03:25:32.298Z,14.00
2022-10-01T03:26:32.268Z,11.40
2022-10-01T03:27:32.257Z,12.90
2022-10-01T03:28:32.247Z,14.90
2022-10-01T03:29:32.238Z,13.90
2022-10-01T03:30:32.228Z,16.80
2022-10-01T03:31:32.491Z,16.40
2022-10-01T03:32:32.197Z,15.50
2022-10-01T03:33:32.197Z,14.80
2022-10-01T03:34:32.178Z,12.10
2022-10-01T03:35:32.177Z,13.10
2022-10-01T03:36:32.159Z,14.10
2022-10-01T03:37:32.159Z,13.80
2022-10-01T03:38:32.130Z,13.20
2022-10-01T03:39:32.127Z,11.50
2022-10-01T03:40:32.121Z,12.70
2022-10-01T03:41:32.334Z,11.40
2022-10-01T03:42:32.073Z,12.60
2022-10-01T03:43:32.071Z,15.00
2022-10-01T03:44:32.050Z,13.70
2022-10-01T03:45:32.128Z,13.30
2022-10-01T03:46:31.998Z,13.60
2022-10-01T03:47:31.978Z,12.40
2022-10-01T03:48:31.960Z,11.70
2022-10-01T03:49:31.944Z,12.90
2022-10-01T03:50:31.911Z,11.10
2022-10-01T03:51:32.223Z,13.90
2022-10-01T03:52:31.863Z,12.30
2022-10-01T03:53:31.851Z,12.90
2022-10-01T03:54:31.822Z,12.90
2022-10-01T03:55:31.793Z,15.30
2022-10-01T03:56:31.789Z,13.20
2022-10-01T03:57:31.763Z,15.50
2022-10-01T03:58:31.731Z,15.00
2022-10-01T03:59:31.713Z,12.80
2022-10-01T04:00:31.703Z,11.40
2022-10-01T04:01:32.168Z,12.40
2022-10-01T04:02:31.735Z,12.30
2022-10-01T04:03:31.645Z,12.80
2022-10-01T04:04:31.614Z,12.10
2022-10-01T04:05:31.614Z,11.70
2022-10-01T04:06:31.621Z,11.70
2022-10-01T04:07:31.586Z,14.60
2022-10-01T04:08:31.555Z,13.70
2022-10-01T04:09:31.555Z,12.20
2022-10-01T04:10:31.555Z,12.40
2022-10-01T04:11:31.840Z,9.90
2022-10-01T04:12:31.526Z,13.30
2022-10-01T04:13:31.516Z,14.90
2022-10-01T04:14:31.496Z,9.90
2022-10-01T04:15:31.476Z,11.40
2022-10-01T04:16:31.554Z,12.30
2022-10-01T04:17:31.456Z,11.40
2022-10-01T04:18:31.444Z,11.90
2022-10-01T04:19:31.426Z,10.90
2022-10-01T04:20:31.398Z,11.70
2022-10-01T04:21:31.598Z,12.30
2022-10-01T04:22:31.366Z,13.60
2022-10-01T04:23:31.357Z,13.40
2022-10-01T04:24:31.337Z,12.30
2022-10-01T04:25:31.317Z,14.40
2022-10-01T04:26:31.304Z,14.50
2022-10-01T04:27:31.298Z,12.40
2022-10-01T04:28:31.327Z,12.10
2022-10-01T04:29:31.238Z,13.40
2022-10-01T04:30:31.199Z,12.90
2022-10-01T04:31:31.334Z,12.60
2022-10-01T04:32:31.169Z,10.90
2022-10-01T04:33:31.139Z,12.20
2022-10-01T04:34:31.106Z,13.70
2022-10-01T04:35:31.088Z,14.00
2022-10-01T04:36:31.072Z,13.70
2022-10-01T04:37:31.084Z,12.90
2022-10-01T04:38:31.019Z,13.70
2022-10-01T04:39:30.991Z,14.10
2022-10-01T04:40:30.958Z,13.50
2022-10-01T04:41:31.375Z,16.50
2022-10-01T04:42:30.910Z,12.10
2022-10-01T04:43:30.892Z,12.80
2022-10-01T04:44:30.851Z,14.50
2022-10-01T04:45:30.820Z,15.10
2022-10-01T04:46:30.972Z,13.00
2022-10-01T04:47:33.534Z,14.30
2022-10-01T04:48:30.759Z,16.20
2022-10-01T04:49:30.713Z,13.20
2022-10-01T04:50:30.679Z,14.60
2022-10-01T04:51:30.672Z,14.80
2022-10-01T04:52:30.629Z,12.70
2022-10-01T04:53:30.633Z,12.10
2022-10-01T04:54:30.573Z,15.60
2022-10-01T04:55:30.573Z,15.60
2022-10-01T04:56:30.544Z,17.70
2022-10-01T04:57:30.522Z,17.30
2022-10-01T04:58:30.501Z,14.00
2022-10-01T04:59:30.493Z,16.80
2022-10-01T05:00:30.443Z,12.30
2022-10-01T05:01:30.472Z,19.60
2022-10-01T05:02:30.466Z,21.00
2022-10-01T05:03:30.396Z,14.50
2022-10-01T05:04:30.355Z,11.90
2022-10-01T05:05:30.335Z,12.20
2022-10-01T05:06:30.305Z,12.50
2022-10-01T05:07:30.276Z,13.20
2022-10-01T05:08:30.254Z,12.50
2022-10-01T05:09:30.235Z,12.30
2022-10-01T05:10:30.194Z,12.90
2022-10-01T05:11:30.168Z,13.00
2022-10-01T05:12:30.126Z,12.30
2022-10-01T05:13:30.506Z,14.30
2022-10-01T05:14:30.076Z,12.10
2022-10-01T05:15:30.031Z,15.10
2022-10-01T05:16:30.038Z,12.50
2022-10-01T05:17:29.976Z,18.20
2022-10-01T05:18:29.939Z,16.00
2022-10-01T05:19:29.907Z,14.40
2022-10-01T05:20:29.869Z,14.90
2022-10-01T05:21:29.838Z,16.20
2022-10-01T05:22:29.798Z,21.60
2022-10-01T05:23:29.758Z,23.00
2022-10-01T05:24:29.745Z,20.70
2022-10-01T05:25:29.708Z,18.90
2022-10-01T05:26:29.659Z,19.30
2022-10-01T05:27:29.641Z,17.00
2022-10-01T05:28:29.746Z,18.70
2022-10-01T05:29:29.566Z,20.60
2022-10-01T05:30:29.539Z,19.40
2022-10-01T05:31:29.550Z,25.80
2022-10-01T05:32:29.450Z,27.30
2022-10-01T05:33:29.418Z,27.10
2022-10-01T05:34:29.377Z,26.90
2022-10-01T05:35:29.363Z,43.90
2022-10-01T05:36:29.300Z,52.10
2022-10-01T05:37:29.271Z,36.50
2022-10-01T05:38:29.232Z,38.40
2022-10-01T05:39:29.220Z,56.20
2022-10-01T05:40:29.169Z,36.40
2022-10-01T05:41:29.142Z,35.40
2022-10-01T05:42:29.092Z,61.30
2022-10-01T05:43:29.061Z,78.10
2022-10-01T05:44:29.029Z,68.30
2022-10-01T05:45:29.035Z,54.80
2022-10-01T05:46:28.962Z,51.60
2022-10-01T05:47:28.933Z,39.00
2022-10-01T05:48:28.909Z,43.40
2022-10-01T05:49:28.884Z,65.10
2022-10-01T05:50:28.842Z,57.10
2022-10-01T05:51:28.814Z,44.90
2022-10-01T05:52:28.773Z,49.20
2022-10-01T05:53:28.734Z,66.50
2022-10-01T05:54:28.704Z,45.60
2022-10-01T05:55:28.694Z,59.40
2022-10-01T05:56:28.624Z,69.30
2022-10-01T05:57:28.596Z,71.80
2022-10-01T05:58:28.564Z,56.60
2022-10-01T05:59:31.590Z,46.40
2022-10-01T06:00:28.535Z,45.70
2022-10-01T06:01:28.468Z,46.10
2022-10-01T06:02:28.646Z,45.70
2022-10-01T06:03:28.387Z,56.10
2022-10-01T06:04:28.354Z,40.70
2022-10-01T06:05:28.316Z,44.50
2022-10-01T06:06:28.278Z,50.10
2022-10-01T06:07:28.235Z,44.40
2022-10-01T06:08:28.195Z,46.90
2022-10-01T06:09:28.157Z,45.90
2022-10-01T06:10:28.239Z,49.10
2022-10-01T06:11:28.096Z,41.80
2022-10-01T06:12:28.018Z,42.10
2022-10-01T06:13:27.969Z,47.40
2022-10-01T06:14:27.928Z,52.50
2022-10-01T06:15:27.878Z,50.20
2022-10-01T06:16:27.943Z,50.40
2022-10-01T06:17:27.807Z,43.10
2022-10-01T06:18:27.776Z,44.20
2022-10-01T06:19:27.709Z,45.80
2022-10-01T06:20:27.714Z,46.30
2022-10-01T06:21:27.611Z,51.10
2022-10-01T06:22:27.596Z,44.20
2022-10-01T06:23:27.520Z,51.30
2022-10-01T06:24:27.482Z,50.40
2022-10-01T06:25:27.446Z,45.20
2022-10-01T06:26:27.391Z,49.80
2022-10-01T06:27:27.370Z,46.00
2022-10-01T06:28:27.337Z,48.20
2022-10-01T06:29:27.271Z,49.20
2022-10-01T06:30:27.334Z,46.70
2022-10-01T06:31:27.233Z,45.00
2022-10-01T06:32:29.600Z,45.20
2022-10-01T06:33:27.091Z,45.10
2022-10-01T06:34:27.045Z,40.50
2022-10-01T06:35:26.996Z,43.90
2022-10-01T06:36:26.963Z,43.40
2022-10-01T06:37:26.893Z,44.40
2022-10-01T06:38:26.874Z,44.70
2022-10-01T06:39:26.804Z,45.70
2022-10-01T06:40:26.828Z,43.20
2022-10-01T06:41:26.704Z,38.70
2022-10-01T06:42:26.672Z,40.30
2022-10-01T06:43:26.625Z,40.50
2022-10-01T06:44:26.565Z,41.60
2022-10-01T06:45:26.614Z,39.20
2022-10-01T06:46:26.465Z,38.70
2022-10-01T06:47:26.404Z,40.10
2022-10-01T06:48:26.366Z,40.90
2022-10-01T06:49:26.325Z,38.20
2022-10-01T06:50:26.316Z,41.30
2022-10-01T06:51:26.207Z,38.80
2022-10-01T06:52:26.157Z,39.70
2022-10-01T06:53:26.108Z,36.40
2022-10-01T06:54:26.077Z,39.70
2022-10-01T06:55:26.008Z,47.30
2022-10-01T06:56:25.972Z,38.70
2022-10-01T06:57:25.908Z,38.30
2022-10-01T06:58:25.847Z,38.80
2022-10-01T06:59:25.798Z,34.80
2022-10-01T07:00:25.736Z,33.60
2022-10-01T07:01:25.774Z,33.90
2022-10-01T07:02:25.683Z,38.60
2022-10-01T07:03:25.577Z,35.60
2022-10-01T07:04:25.529Z,36.00
2022-10-01T07:05:25.460Z,36.10
2022-10-01T07:06:25.420Z,36.40
2022-10-01T07:07:29.892Z,37.10
2022-10-01T07:08:25.301Z,34.80
2022-10-01T07:09:25.315Z,35.80
2022-10-01T07:10:25.252Z,32.00
2022-10-01T07:11:25.133Z,34.50
2022-10-01T07:12:25.092Z,33.30
2022-10-01T07:13:25.031Z,32.70
2022-10-01T07:14:24.981Z,32.30
2022-10-01T07:15:24.924Z,34.60
2022-10-01T07:16:24.927Z,32.70
2022-10-01T07:17:24.804Z,36.30
2022-10-01T07:18:24.753Z,33.40
2022-10-01T07:19:24.683Z,34.80
2022-10-01T07:20:24.661Z,32.60
2022-10-01T07:21:24.552Z,32.30
2022-10-01T07:22:24.495Z,30.40
2022-10-01T07:23:24.442Z,34.40
2022-10-01T07:24:24.374Z,32.90
2022-10-01T07:25:24.325Z,37.60
2022-10-01T07:26:24.253Z,36.60
2022-10-01T07:27:24.182Z,33.30
2022-10-01T07:28:24.170Z,36.10
2022-10-01T07:29:24.045Z,35.50
2022-10-01T07:30:24.057Z,36.90
2022-10-01T07:31:23.965Z,34.80
2022-10-01T07:32:23.858Z,35.70
2022-10-01T07:33:23.777Z,35.30
2022-10-01T07:34:23.727Z,34.50
2022-10-01T07:35:23.686Z,35.60
2022-10-01T07:36:23.587Z,33.90
2022-10-01T07:37:23.529Z,35.00
2022-10-01T07:38:23.457Z,34.00
2022-10-01T07:39:23.386Z,35.90
2022-10-01T07:40:23.439Z,35.90
2022-10-01T07:41:23.280Z,32.90
2022-10-01T07:42:23.200Z,35.80
2022-10-01T07:43:23.137Z,33.70
2022-10-01T07:44:23.077Z,34.20
2022-10-01T07:45:23.007Z,32.70
2022-10-01T07:46:22.986Z,31.70
2022-10-01T07:47:22.877Z,34.10
2022-10-01T07:48:22.813Z,31.80
2022-10-01T07:49:22.741Z,34.30
2022-10-01T07:50:22.689Z,35.40
2022-10-01T07:51:22.630Z,34.00
2022-10-01T07:52:22.542Z,35.70
2022-10-01T07:53:22.481Z,33.40
2022-10-01T07:54:22.416Z,34.10
2022-10-01T07:55:22.350Z,34.20
2022-10-01T07:56:22.280Z,35.00
2022-10-01T07:57:22.222Z,37.50
2022-10-01T07:58:22.164Z,34.10
2022-10-01T07:59:22.093Z,32.50
2022-10-01T08:00:22.034Z,33.90
2022-10-01T08:01:22.000Z,33.30
2022-10-01T08:02:21.971Z,34.70
2022-10-01T08:03:21.833Z,32.90
2022-10-01T08:04:21.784Z,36.30
2022-10-01T08:05:21.730Z,35.20
2022-10-01T08:06:25.319Z,33.80
2022-10-01T08:07:21.592Z,35.00
2022-10-01T08:08:21.528Z,34.30
2022-10-01T08:09:21.456Z,34.10
2022-10-01T08:10:21.401Z,36.20
2022-10-01T08:11:21.316Z,33.60
2022-10-01T08:12:21.278Z,32.20
2022-10-01T08:13:21.196Z,33.90
2022-10-01T08:14:21.127Z,35.60
2022-10-01T08:15:21.065Z,35.30
2022-10-01T08:16:21.031Z,35.00
2022-10-01T08:17:20.937Z,33.90
2022-10-01T08:18:20.869Z,29.00
2022-10-01T08:19:20.798Z,32.60
2022-10-01T08:20:20.739Z,34.30
2022-10-01T08:21:20.657Z,31.20
2022-10-01T08:22:20.599Z,32.40
2022-10-01T08:23:20.509Z,33.70
2022-10-01T08:24:20.459Z,31.50
2022-10-01T08:25:20.379Z,31.90
2022-10-01T08:26:20.311Z,34.40
2022-10-01T08:27:20.230Z,34.30
2022-10-01T08:28:20.249Z,36.90
2022-10-01T08:29:20.104Z,34.00
2022-10-01T08:30:20.021Z,33.80
2022-10-01T08:31:19.970Z,36.00
2022-10-01T08:32:19.890Z,32.50
2022-10-01T08:33:19.834Z,32.50
2022-10-01T08:34:19.742Z,31.90
2022-10-01T08:35:19.669Z,36.10
2022-10-01T08:36:19.602Z,39.40
2022-10-01T08:37:19.522Z,40.60
2022-10-01T08:38:19.473Z,37.80
2022-10-01T08:39:19.400Z,40.00
2022-10-01T08:40:19.325Z,32.90
2022-10-01T08:41:23.052Z,34.10
2022-10-01T08:42:19.184Z,34.50
2022-10-01T08:43:19.133Z,35.20
2022-10-01T08:44:19.071Z,37.80
2022-10-01T08:45:18.985Z,37.70
2022-10-01T08:46:19.036Z,33.80
2022-10-01T08:47:18.853Z,37.70
2022-10-01T08:48:18.785Z,36.70
2022-10-01T08:49:18.695Z,36.90
2022-10-01T08:50:18.624Z,37.30
2022-10-01T08:51:18.545Z,34.80
2022-10-01T08:52:18.487Z,40.70
2022-10-01T08:53:18.406Z,44.30
2022-10-01T08:54:18.345Z,38.20
2022-10-01T08:55:18.257Z,46.40
2022-10-01T08:56:18.184Z,49.60
2022-10-01T08:57:18.106Z,53.20
2022-10-01T08:58:18.027Z,61.10
2022-10-01T08:59:17.955Z,55.30
2022-10-01T09:00:17.879Z,64.40
2022-10-01T09:01:17.835Z,58.40
2022-10-01T09:02:17.737Z,54.70
2022-10-01T09:03:17.658Z,80.20
2022-10-01T09:04:17.640Z,85.20
2022-10-01T09:05:17.526Z,95.60
2022-10-01T09:06:17.440Z,92.00
2022-10-01T09:07:17.370Z,96.20
2022-10-01T09:08:17.292Z,84.80
2022-10-01T09:09:17.221Z,90.30
2022-10-01T09:10:17.151Z,97.00
2022-10-01T09:11:17.074Z,110.60
2022-10-01T09:12:17.099Z,116.50
2022-10-01T09:13:16.919Z,111.60
2022-10-01T09:14:16.863Z,111.10
2022-10-01T09:15:16.781Z,113.70
2022-10-01T09:16:16.718Z,112.30
2022-10-01T09:17:16.620Z,109.90
2022-10-01T09:18:16.549Z,122.00
2022-10-01T09:19:16.463Z,125.50
2022-10-01T09:20:16.382Z,107.10
2022-10-01T09:21:16.304Z,105.60
2022-10-01T09:22:16.237Z,103.80
2022-10-01T09:23:16.156Z,102.10
2022-10-01T09:24:16.085Z,95.80
2022-10-01T09:25:16.015Z,113.20
2022-10-01T09:26:15.935Z,113.60
2022-10-01T09:27:15.865Z,116.60
2022-10-01T09:28:15.906Z,115.80
2022-10-01T09:29:15.718Z,104.80
2022-10-01T09:30:15.656Z,112.20
2022-10-01T09:31:15.655Z,124.00
2022-10-01T09:32:15.508Z,111.10
2022-10-01T09:33:15.425Z,116.80
2022-10-01T09:34:15.357Z,140.00
2022-10-01T09:35:15.297Z,119.20
2022-10-01T09:36:15.217Z,119.50
2022-10-01T09:37:15.153Z,130.70
2022-10-01T09:38:15.078Z,120.10
2022-10-01T09:39:14.998Z,139.50
2022-10-01T09:40:14.941Z,112.30
2022-10-01T09:41:14.872Z,103.00
2022-10-01T09:42:14.785Z,108.50
2022-10-01T09:43:14.708Z,101.10
2022-10-01T09:44:18.477Z,109.10
2022-10-01T09:45:14.561Z,118.70
2022-10-01T09:46:14.537Z,131.00
2022-10-01T09:47:14.419Z,105.40
2022-10-01T09:48:14.350Z,106.40
2022-10-01T09:49:14.301Z,90.60
2022-10-01T09:50:14.193Z,118.80
2022-10-01T09:51:14.119Z,115.60
2022-10-01T09:52:14.043Z,94.80
2022-10-01T09:53:13.952Z,110.90
2022-10-01T09:54:13.882Z,111.50
2022-10-01T09:55:13.853Z,131.00
2022-10-01T09:56:13.740Z,129.40
2022-10-01T09:57:13.654Z,108.40
2022-10-01T09:58:13.593Z,94.10
2022-10-01T09:59:13.529Z,105.20
2022-10-01T10:00:13.443Z,100.90
2022-10-01T10:01:13.382Z,123.50
2022-10-01T10:02:13.448Z,121.90
2022-10-01T10:03:13.319Z,98.50
2022-10-01T10:04:16.678Z,85.90
2022-10-01T10:05:14.083Z,101.90
2022-10-01T10:06:13.037Z,107.60
2022-10-01T10:07:12.945Z,112.40
2022-10-01T10:08:12.874Z,84.50
2022-10-01T10:09:12.797Z,109.40
2022-10-01T10:10:12.736Z,95.10
2022-10-01T10:11:12.666Z,86.10
2022-10-01T10:12:12.597Z,92.50
2022-10-01T10:13:12.517Z,95.60
2022-10-01T10:14:12.446Z,76.90
2022-10-01T10:15:12.378Z,72.40
2022-10-01T10:16:12.351Z,69.70
2022-10-01T10:17:12.237Z,86.70
2022-10-01T10:18:12.156Z,64.60
2022-10-01T10:19:12.069Z,81.10
2022-10-01T10:20:11.999Z,79.30
2022-10-01T10:21:11.939Z,88.70
2022-10-01T10:22:11.879Z,84.10
2022-10-01T10:23:11.789Z,77.50
2022-10-01T10:24:11.710Z,66.50
2022-10-01T10:25:11.630Z,73.30
2022-10-01T10:26:11.570Z,71.70
2022-10-01T10:27:11.501Z,81.10
2022-10-01T10:28:11.451Z,72.90
2022-10-01T10:29:11.342Z,74.70
2022-10-01T10:30:11.288Z,75.60
2022-10-01T10:31:11.283Z,65.20
2022-10-01T10:32:11.172Z,69.60
2022-10-01T10:33:11.063Z,74.20
2022-10-01T10:34:11.007Z,74.10
2022-10-01T10:35:10.922Z,74.20
2022-10-01T10:36:10.861Z,73.90
2022-10-01T10:37:10.794Z,70.70
2022-10-01T10:38:10.726Z,67.10
2022-10-01T10:39:10.624Z,74.70
2022-10-01T10:40:10.565Z,59.10
2022-10-01T10:41:10.485Z,57.00
2022-10-01T10:42:10.415Z,59.90
2022-10-01T10:43:10.377Z,65.90
2022-10-01T10:44:10.265Z,71.80
2022-10-01T10:45:10.205Z,69.40
2022-10-01T10:46:10.188Z,59.80
2022-10-01T10:47:10.076Z,54.20
2022-10-01T10:48:10.004Z,66.30
2022-10-01T10:49:09.939Z,60.70
2022-10-01T10:50:09.866Z,61.20
2022-10-01T10:51:09.789Z,55.50
2022-10-01T10:52:09.717Z,58.50
2022-10-01T10:53:09.796Z,63.30
2022-10-01T10:54:09.578Z,64.20
2022-10-01T10:55:09.733Z,56.20
2022-10-01T10:56:09.436Z,56.90
2022-10-01T10:57:09.379Z,62.90
2022-10-01T10:58:09.299Z,52.00
2022-10-01T10:59:09.239Z,46.50
2022-10-01T11:00:09.139Z,54.70
2022-10-01T11:01:09.106Z,56.10
2022-10-01T11:02:09.069Z,57.80
2022-10-01T11:03:08.923Z,55.90
2022-10-01T11:04:08.871Z,61.60
2022-10-01T11:05:08.779Z,61.60
2022-10-01T11:06:08.701Z,66.30
2022-10-01T11:07:08.631Z,56.50
2022-10-01T11:08:08.591Z,64.80
2022-10-01T11:09:08.505Z,48.10
2022-10-01T11:10:08.431Z,54.20
2022-10-01T11:11:08.363Z,52.70
2022-10-01T11:12:08.294Z,52.60
2022-10-01T11:13:08.230Z,53.90
2022-10-01T11:14:08.183Z,53.10
2022-10-01T11:15:08.102Z,57.60
2022-10-01T11:16:08.064Z,57.50
2022-10-01T11:17:07.938Z,62.40
2022-10-01T11:18:07.874Z,55.30
2022-10-01T11:19:07.808Z,45.70
2022-10-01T11:20:07.726Z,59.70
2022-10-01T11:21:07.663Z,52.30
2022-10-01T11:22:07.605Z,46.60
2022-10-01T11:23:07.525Z,49.90
2022-10-01T11:24:07.462Z,50.80
2022-10-01T11:25:07.396Z,53.60
2022-10-01T11:26:07.318Z,45.60
2022-10-01T11:27:07.257Z,48.90
2022-10-01T11:28:07.205Z,49.40
2022-10-01T11:29:07.107Z,62.10
2022-10-01T11:30:07.056Z,50.50
2022-10-01T11:31:07.020Z,50.90
2022-10-01T11:32:06.927Z,53.40
2022-10-01T11:33:06.862Z,44.30
2022-10-01T11:34:06.758Z,43.40
2022-10-01T11:35:06.713Z,44.60
2022-10-01T11:36:06.645Z,45.90
2022-10-01T11:37:06.570Z,47.50
2022-10-01T11:38:06.478Z,43.80
2022-10-01T11:39:06.438Z,42.90
2022-10-01T11:40:06.356Z,35.20
2022-10-01T11:41:06.289Z,40.20
2022-10-01T11:42:06.230Z,39.70
2022-10-01T11:43:06.160Z,37.60
2022-10-01T11:44:06.079Z,36.90
2022-10-01T11:45:06.031Z,36.00
2022-10-01T11:46:06.004Z,35.00
2022-10-01T11:47:05.889Z,34.00
2022-10-01T11:48:05.812Z,30.30
2022-10-01T11:49:05.751Z,32.20
2022-10-01T11:50:05.673Z,34.80
2022-10-01T11:51:05.613Z,28.90
2022-10-01T11:52:05.545Z,32.10
2022-10-01T11:53:05.485Z,29.50
2022-10-01T11:54:05.413Z,29.50
2022-10-01T11:55:05.356Z,31.10
2022-10-01T11:56:05.304Z,26.70
2022-10-01T11:57:05.234Z,33.50
2022-10-01T11:58:05.145Z,32.00
2022-10-01T11:59:05.084Z,21.80
2022-10-01T12:00:05.024Z,23.50
2022-10-01T12:01:04.975Z,20.80
2022-10-01T12:02:04.942Z,28.20
2022-10-01T12:03:04.833Z,23.80
2022-10-01T12:04:04.775Z,27.50
2022-10-01T12:05:04.752Z,27.00
2022-10-01T12:06:04.636Z,28.60
2022-10-01T12:07:04.576Z,27.50
2022-10-01T12:08:04.495Z,25.30
2022-10-01T12:09:04.436Z,25.80
2022-10-01T12:10:04.362Z,24.60
2022-10-01T12:11:04.307Z,27.50
2022-10-01T12:12:04.218Z,24.60
2022-10-01T12:13:04.157Z,25.30
2022-10-01T12:14:04.089Z,26.00
2022-10-01T12:15:06.831Z,21.50
2022-10-01T12:16:04.031Z,24.40
2022-10-01T12:17:03.903Z,24.50
2022-10-01T12:18:03.819Z,27.50
2022-10-01T12:19:03.760Z,28.90
2022-10-01T12:20:03.691Z,28.50
2022-10-01T12:21:03.630Z,27.70
2022-10-01T12:22:03.539Z,26.30
2022-10-01T12:23:03.479Z,28.10
2022-10-01T12:24:03.416Z,34.90
2022-10-01T12:25:03.342Z,36.00
2022-10-01T12:26:03.289Z,35.70
2022-10-01T12:27:03.192Z,37.00
2022-10-01T12:28:03.147Z,38.70
2022-10-01T12:29:03.062Z,34.30
2022-10-01T12:30:02.980Z,37.40
2022-10-01T12:31:02.940Z,38.70
2022-10-01T12:32:02.853Z,38.60
2022-10-01T12:33:02.777Z,39.70
2022-10-01T12:34:02.690Z,34.20
2022-10-01T12:35:02.613Z,37.90
2022-10-01T12:36:02.534Z,43.80
2022-10-01T12:37:02.481Z,43.70
2022-10-01T12:38:02.403Z,32.50
2022-10-01T12:39:02.325Z,36.60
2022-10-01T12:40:02.246Z,33.00
2022-10-01T12:41:02.165Z,36.50
2022-10-01T12:42:02.106Z,36.50
2022-10-01T12:43:03.963Z,40.80
2022-10-01T12:44:01.946Z,42.10
2022-10-01T12:45:01.867Z,37.60
2022-10-01T12:46:01.837Z,36.60
2022-10-01T12:47:01.726Z,34.70
2022-10-01T12:48:01.659Z,37.50
2022-10-01T12:49:01.577Z,37.00
2022-10-01T12:50:01.494Z,36.30
2022-10-01T12:51:01.427Z,44.80